Time;durP1;ratioP1;P1;durP2;ratioP2;P2;SDS_P1;SDS_P2;PMS_P1;PMS_P2;Temp;Humidity;BMP_temperature;BMP_pressure;BME280_temperature;BME280_humidity;BME280_pressure;Samples;Min_cycle;Max_cycle;Signal;HPM_P1;HPM_P2
2022/01/08 00:00:56;;;;;;;2.20;1.90;;;3.40;54.80;;;;;;5030343;28;20579;-83
2022/01/08 00:03:21;;;;;;;2.00;1.90;;;3.40;54.90;;;;;;5029275;28;20184;-84
2022/01/08 00:05:49;;;;;;;2.40;2.20;;;3.40;55.10;;;;;;5029493;28;20204;-83
2022/01/08 00:08:15;;;;;;;2.07;1.97;;;3.50;54.70;;;;;;5030515;28;20422;-83
2022/01/08 00:10:42;;;;;;;2.17;2.00;;;3.50;54.60;;;;;;5029978;28;20454;-83
2022/01/08 00:13:13;;;;;;;1.77;1.67;;;3.40;54.40;;;;;;5030372;28;20427;-84
2022/01/08 00:15:44;;;;;;;5.63;1.60;;;3.40;54.20;;;;;;5029585;28;20423;-85
2022/01/08 00:18:10;;;;;;;2.43;1.97;;;3.50;54.00;;;;;;5029626;28;20431;-83
2022/01/08 00:20:38;;;;;;;3.47;1.83;;;3.50;54.00;;;;;;5030010;28;20454;-84
2022/01/08 00:23:04;;;;;;;1.37;1.27;;;3.50;54.30;;;;;;5028907;28;20709;-83
2022/01/08 00:25:33;;;;;;;2.27;1.80;;;3.50;53.80;;;;;;5030770;28;20861;-83
2022/01/08 00:27:59;;;;;;;2.03;1.90;;;3.50;53.60;;;;;;5028868;28;20415;-84
2022/01/08 00:30:24;;;;;;;1.97;1.80;;;3.50;52.70;;;;;;5029110;28;20430;-83
2022/01/08 00:32:52;;;;;;;2.20;1.87;;;3.60;52.50;;;;;;5029088;28;20183;-84
2022/01/08 00:35:23;;;;;;;2.17;2.07;;;3.60;53.20;;;;;;5029820;28;20431;-86
2022/01/08 00:37:51;;;;;;;2.73;1.93;;;3.60;53.40;;;;;;5029355;28;20438;-85
2022/01/08 00:40:16;;;;;;;3.27;2.03;;;3.60;53.50;;;;;;5029066;28;20459;-86
2022/01/08 00:42:42;;;;;;;2.80;2.40;;;3.60;53.60;;;;;;5029671;28;20481;-85
2022/01/08 00:45:09;;;;;;;1.83;1.50;;;3.70;52.90;;;;;;5030766;28;20212;-86
2022/01/08 00:47:37;;;;;;;3.25;1.58;;;3.70;53.80;;;;;;5033157;28;20479;-85
2022/01/08 00:50:12;;;;;;;1.50;1.40;;;3.70;53.40;;;;;;5033170;28;20177;-85
2022/01/08 00:52:39;;;;;;;1.50;1.40;;;3.60;52.50;;;;;;5033458;28;20470;-85
2022/01/08 00:55:05;;;;;;;2.00;1.70;;;3.60;53.20;;;;;;5033788;28;20411;-85
2022/01/08 00:57:31;;;;;;;2.03;1.57;;;3.60;52.20;;;;;;5033611;28;20815;-86
2022/01/08 00:59:57;;;;;;;2.37;1.97;;;3.50;53.30;;;;;;5033372;28;21004;-84
2022/01/08 01:02:22;;;;;;;3.23;2.20;;;3.50;52.90;;;;;;5033165;28;20177;-85
2022/01/08 01:04:48;;;;;;;2.40;2.20;;;3.60;53.40;;;;;;5033985;28;20451;-86
2022/01/08 01:07:14;;;;;;;1.83;1.73;;;3.60;53.70;;;;;;5033008;28;20184;-85
2022/01/08 01:09:39;;;;;;;2.07;1.97;;;3.60;52.60;;;;;;5032862;28;20522;-83
2022/01/08 01:12:06;;;;;;;2.23;2.00;;;3.60;53.40;;;;;;5032128;28;20257;-83
2022/01/08 01:14:31;;;;;;;4.00;3.20;;;3.60;53.60;;;;;;5032496;28;20238;-83
2022/01/08 01:16:57;;;;;;;2.70;2.37;;;3.60;53.60;;;;;;5032512;28;20427;-83
2022/01/08 01:19:23;;;;;;;2.50;2.20;;;3.60;53.50;;;;;;5032279;28;20177;-83
2022/01/08 01:21:49;;;;;;;2.87;2.60;;;3.60;54.00;;;;;;5032608;28;20177;-85
2022/01/08 01:24:20;;;;;;;2.90;2.10;;;3.60;53.60;;;;;;5032912;28;20264;-85
2022/01/08 01:27:10;;;;;;;2.20;2.10;;;3.60;54.10;;;;;;5034112;28;20443;-85
2022/01/08 01:47:00;;;;;;;2.17;1.97;;;3.70;54.30;;;;;;5034057;28;20403;-84
2022/01/08 01:48:59;;;;;;;2.30;2.10;;;3.70;54.10;;;;;;5033113;28;21006;-84
2022/01/08 01:51:24;;;;;;;2.33;2.13;;;3.70;52.80;;;;;;5031681;28;20557;-84
2022/01/08 01:53:51;;;;;;;2.27;2.07;;;3.70;53.60;;;;;;5031985;28;20202;-84
2022/01/08 01:56:18;;;;;;;2.23;2.03;;;3.70;54.00;;;;;;5031538;28;20197;-84
2022/01/08 01:58:44;;;;;;;2.00;1.80;;;3.80;53.90;;;;;;5032185;28;20418;-84
2022/01/08 02:01:10;;;;;;;2.27;2.07;;;3.80;53.00;;;;;;5031776;28;20438;-83
2022/01/08 02:03:36;;;;;;;2.80;2.60;;;3.80;53.00;;;;;;5031607;28;20496;-84
2022/01/08 02:06:02;;;;;;;2.40;2.10;;;3.70;52.90;;;;;;5032047;28;20208;-82
2022/01/08 02:08:29;;;;;;;1.90;1.80;;;3.80;53.60;;;;;;5031168;28;20641;-83
2022/01/08 02:10:55;;;;;;;2.47;1.70;;;3.80;53.40;;;;;;5030709;28;20837;-82
2022/01/08 02:13:22;;;;;;;1.67;1.57;;;3.80;54.40;;;;;;5031219;28;20411;-83
2022/01/08 02:15:52;;;;;;;3.10;2.40;;;3.80;53.40;;;;;;5031352;28;20575;-82
2022/01/08 02:18:18;;;;;;;2.10;1.90;;;3.80;53.40;;;;;;5031260;28;20507;-83
2022/01/08 02:20:44;;;;;;;3.10;1.73;;;3.80;54.30;;;;;;5030855;28;20465;-84
2022/01/08 02:23:10;;;;;;;1.60;1.50;;;3.80;54.20;;;;;;5031692;28;20411;-84
2022/01/08 02:25:35;;;;;;;1.83;1.70;;;3.90;54.00;;;;;;5031084;28;20574;-81
2022/01/08 02:28:05;;;;;;;1.60;1.50;;;3.90;54.30;;;;;;5031392;28;20222;-82
2022/01/08 02:30:31;;;;;;;2.50;1.60;;;3.90;53.80;;;;;;5030831;28;20184;-82
2022/01/08 02:32:57;;;;;;;2.47;1.60;;;3.90;53.80;;;;;;5030932;28;20416;-83
2022/01/08 02:35:23;;;;;;;1.80;1.70;;;4.00;55.40;;;;;;5030333;28;20411;-83
2022/01/08 02:37:49;;;;;;;1.57;1.47;;;4.00;55.70;;;;;;5031325;28;20176;-82
2022/01/08 02:40:15;;;;;;;2.10;1.30;;;4.00;56.10;;;;;;5030772;28;20443;-82
2022/01/08 02:42:50;;;;;;;2.00;1.73;;;4.00;56.00;;;;;;5030495;28;20426;-82
2022/01/08 02:45:17;;;;;;;2.03;1.20;;;4.00;55.80;;;;;;5030722;28;20426;-82
2022/01/08 02:47:43;;;;;;;2.93;1.40;;;4.00;55.90;;;;;;5031044;28;20789;-83
2022/01/08 02:50:10;;;;;;;1.37;1.27;;;4.00;55.70;;;;;;5030812;28;20415;-85
2022/01/08 02:52:43;;;;;;;1.50;1.40;;;4.00;55.20;;;;;;5030987;28;20489;-84
2022/01/08 02:55:10;;;;;;;1.87;1.67;;;4.10;55.80;;;;;;5031042;28;20450;-83
2022/01/08 02:57:36;;;;;;;2.03;1.47;;;4.10;54.80;;;;;;5031256;28;20908;-85
2022/01/08 03:00:04;;;;;;;1.30;1.10;;;4.20;54.80;;;;;;5031098;28;20407;-84
2022/01/08 03:02:30;;;;;;;1.57;1.27;;;4.20;55.10;;;;;;5030872;28;20315;-84
2022/01/08 03:04:56;;;;;;;2.13;1.70;;;4.20;55.70;;;;;;5030630;28;20465;-84
2022/01/08 03:07:21;;;;;;;1.30;1.20;;;4.20;55.70;;;;;;5031339;28;20201;-82
2022/01/08 03:09:56;;;;;;;1.53;1.40;;;4.20;56.20;;;;;;5029430;28;20268;-82
2022/01/08 03:12:24;;;;;;;1.60;1.50;;;4.20;57.10;;;;;;5030643;28;20196;-82
2022/01/08 03:14:50;;;;;;;1.37;1.27;;;4.20;57.60;;;;;;5013472;28;20457;-83
2022/01/08 03:17:16;;;;;;;1.50;1.40;;;4.20;57.30;;;;;;5030301;28;20502;-83
2022/01/08 03:19:42;;;;;;;1.40;1.30;;;4.10;59.00;;;;;;5029570;28;20538;-84
2022/01/08 03:22:09;;;;;;;1.93;1.70;;;4.10;59.30;;;;;;5029922;28;20782;-84
2022/01/08 03:24:35;;;;;;;4.30;1.93;;;4.10;59.60;;;;;;5030270;28;20386;-84
2022/01/08 03:27:00;;;;;;;1.90;1.80;;;4.00;61.30;;;;;;5031800;28;20415;-84
2022/01/08 03:29:26;;;;;;;2.10;1.90;;;4.00;63.00;;;;;;5030401;28;20177;-84
2022/01/08 03:31:52;;;;;;;3.20;2.43;;;4.00;63.80;;;;;;5030363;28;20197;-85
2022/01/08 03:34:18;;;;;;;5.73;2.00;;;3.90;65.10;;;;;;5030016;28;20172;-85
2022/01/08 03:36:44;;;;;;;2.10;2.00;;;3.90;65.80;;;;;;5030141;28;20412;-83
2022/01/08 03:39:09;;;;;;;2.77;2.10;;;3.90;66.40;;;;;;5030135;28;20268;-84
2022/01/08 03:41:35;;;;;;;2.10;1.93;;;3.80;67.90;;;;;;5029654;28;20267;-83
2022/01/08 03:44:01;;;;;;;1.97;1.83;;;3.80;67.80;;;;;;5030198;28;20177;-83
2022/01/08 03:46:29;;;;;;;2.37;2.17;;;3.80;68.90;;;;;;5029603;28;20703;-83
2022/01/08 03:49:13;;;;;;;2.37;2.17;;;3.80;69.60;;;;;;5029512;28;20485;-83
2022/01/08 03:51:40;;;;;;;2.43;1.90;;;3.80;69.40;;;;;;5030484;28;20485;-84
2022/01/08 03:54:06;;;;;;;2.47;1.97;;;3.80;70.70;;;;;;5030550;28;20466;-83
2022/01/08 03:56:32;;;;;;;2.70;2.50;;;3.70;70.60;;;;;;5029686;28;20408;-84
2022/01/08 03:58:57;;;;;;;2.27;2.07;;;3.70;70.30;;;;;;5030160;28;20473;-84
2022/01/08 04:01:23;;;;;;;3.03;2.27;;;3.70;70.60;;;;;;5029998;28;20646;-82
2022/01/08 04:03:49;;;;;;;2.23;2.07;;;3.70;71.90;;;;;;5029459;28;20183;-83
2022/01/08 04:06:15;;;;;;;3.13;2.83;;;3.60;72.90;;;;;;5029484;28;20427;-83
2022/01/08 04:08:40;;;;;;;2.47;2.37;;;3.70;73.30;;;;;;5029751;28;20637;-84
2022/01/08 04:11:06;;;;;;;2.80;2.60;;;3.70;72.30;;;;;;5028896;28;20218;-84
2022/01/08 04:13:35;;;;;;;2.70;2.50;;;3.70;73.10;;;;;;5030649;28;20172;-84
2022/01/08 04:16:10;;;;;;;3.70;2.47;;;3.70;73.50;;;;;;5028993;28;20169;-85
2022/01/08 04:18:36;;;;;;;2.33;2.20;;;3.70;72.40;;;;;;5029880;28;20423;-85
2022/01/08 04:23:30;;;;;;;2.53;2.33;;;3.70;72.40;;;;;;5031131;28;20587;-86
2022/01/08 04:25:55;;;;;;;3.10;2.90;;;3.70;72.10;;;;;;5029722;28;20423;-82
2022/01/08 04:28:22;;;;;;;2.50;2.40;;;3.80;72.40;;;;;;5029679;28;20355;-83
2022/01/08 04:30:47;;;;;;;2.07;1.80;;;3.80;71.30;;;;;;5029747;28;20208;-83
2022/01/08 04:33:13;;;;;;;2.27;2.17;;;3.80;71.10;;;;;;5029489;28;20454;-81
2022/01/08 04:35:39;;;;;;;3.33;3.07;;;3.70;69.40;;;;;;5029756;28;20415;-83
2022/01/08 04:38:05;;;;;;;2.60;2.50;;;3.80;72.70;;;;;;5029685;28;20664;-82
2022/01/08 04:40:32;;;;;;;2.67;2.47;;;3.80;71.90;;;;;;5030118;28;20200;-80
2022/01/08 04:42:59;;;;;;;2.40;2.23;;;3.80;71.20;;;;;;5030208;28;20428;-84
2022/01/08 04:45:28;;;;;;;3.10;2.37;;;3.80;73.40;;;;;;5029885;28;20430;-84
2022/01/08 04:47:54;;;;;;;2.47;2.27;;;3.70;74.90;;;;;;5030474;28;20838;-84
2022/01/08 04:50:20;;;;;;;3.10;2.90;;;3.70;75.00;;;;;;5029940;28;20478;-83
2022/01/08 04:52:46;;;;;;;2.80;2.20;;;3.70;76.30;;;;;;5030210;28;20971;-84
2022/01/08 04:55:12;;;;;;;2.23;2.13;;;3.70;77.20;;;;;;5030784;28;20212;-83
2022/01/08 04:57:38;;;;;;;2.33;2.10;;;3.60;77.40;;;;;;5030532;28;20415;-83
2022/01/08 05:00:05;;;;;;;4.40;2.50;;;3.60;77.70;;;;;;5031146;28;20177;-82
2022/01/08 05:02:31;;;;;;;3.90;2.20;;;3.60;77.50;;;;;;5030846;28;20179;-83
2022/01/08 05:04:56;;;;;;;2.80;2.60;;;3.50;79.30;;;;;;5031304;28;20557;-81
2022/01/08 05:07:23;;;;;;;2.60;2.40;;;3.50;79.70;;;;;;5031422;28;20594;-82
2022/01/08 05:09:49;;;;;;;2.80;2.60;;;3.50;81.40;;;;;;5030963;28;20443;-82
2022/01/08 05:12:15;;;;;;;2.57;2.40;;;3.40;81.40;;;;;;5030730;28;20525;-81
2022/01/08 05:14:44;;;;;;;2.73;2.50;;;3.40;82.40;;;;;;5031139;28;20502;-82
2022/01/08 05:17:10;;;;;;;2.43;2.23;;;3.30;82.30;;;;;;5030989;28;20952;-81
2022/01/08 05:19:47;;;;;;;2.90;2.33;;;3.30;83.90;;;;;;5030180;28;20415;-82
2022/01/08 05:22:22;;;;;;;2.37;2.17;;;3.30;83.70;;;;;;5030602;28;20419;-81
2022/01/08 05:24:48;;;;;;;2.10;1.97;;;3.30;83.30;;;;;;5030399;28;20415;-82
2022/01/08 05:27:17;;;;;;;1.90;1.80;;;3.30;84.30;;;;;;5030530;28;20446;-81
2022/01/08 05:29:44;;;;;;;1.60;1.50;;;3.30;85.10;;;;;;5030261;28;20177;-82
2022/01/08 05:32:16;;;;;;;1.83;1.73;;;3.30;83.50;;;;;;5032544;28;20458;-83
2022/01/08 05:34:45;;;;;;;1.50;1.40;;;3.20;82.50;;;;;;5034155;28;20416;-83
2022/01/08 05:37:11;;;;;;;1.90;1.77;;;3.20;81.70;;;;;;5033862;28;20926;-84
2022/01/08 05:39:38;;;;;;;1.50;1.40;;;3.20;80.80;;;;;;5017192;28;20416;-83
2022/01/08 05:42:04;;;;;;;1.90;1.80;;;3.10;83.80;;;;;;5033950;28;20441;-82
2022/01/08 05:44:30;;;;;;;1.80;1.70;;;3.20;85.50;;;;;;5033807;28;20411;-82
2022/01/08 05:46:56;;;;;;;1.50;1.40;;;3.30;86.00;;;;;;5033692;28;20427;-81
2022/01/08 05:49:21;;;;;;;2.00;1.60;;;3.30;86.00;;;;;;5033353;28;20176;-82
2022/01/08 05:51:47;;;;;;;1.40;1.30;;;3.30;86.50;;;;;;5033415;28;20668;-82
2022/01/08 05:54:12;;;;;;;1.70;1.60;;;3.30;86.20;;;;;;5033393;28;20541;-81
2022/01/08 05:56:38;;;;;;;0.97;0.97;;;3.30;84.70;;;;;;5033503;28;20267;-81
2022/01/08 05:59:04;;;;;;;1.27;1.00;;;3.20;83.40;;;;;;5033306;28;20176;-81
2022/01/08 06:01:33;;;;;;;0.80;0.80;;;3.20;81.50;;;;;;5032484;28;20480;-83
2022/01/08 06:04:00;;;;;;;0.70;0.60;;;3.30;82.30;;;;;;5033236;28;20473;-81
2022/01/08 06:06:25;;;;;;;0.77;0.77;;;3.30;81.40;;;;;;5032963;28;20419;-81
2022/01/08 06:08:51;;;;;;;0.80;0.80;;;3.10;79.90;;;;;;5033285;28;20488;-81
2022/01/08 06:11:16;;;;;;;0.57;0.57;;;3.10;80.10;;;;;;5032681;28;20199;-83
2022/01/08 06:13:42;;;;;;;0.70;0.70;;;3.10;78.40;;;;;;5033145;28;20176;-83
2022/01/08 06:16:08;;;;;;;0.70;0.70;;;3.10;78.80;;;;;;5032854;28;20173;-82
2022/01/08 06:18:34;;;;;;;0.80;0.80;;;3.10;78.80;;;;;;5033127;28;20422;-83
2022/01/08 06:21:01;;;;;;;0.70;0.70;;;3.00;80.50;;;;;;5032670;28;20573;-84
2022/01/08 06:23:27;;;;;;;0.70;0.70;;;2.90;79.00;;;;;;5033065;28;20422;-83
2022/01/08 06:25:53;;;;;;;1.55;1.13;;;2.90;77.00;;;;;;5032615;28;20455;-81
2022/01/08 06:28:19;;;;;;;0.90;0.90;;;2.80;75.50;;;;;;5033010;28;20648;-82
2022/01/08 06:30:45;;;;;;;0.70;0.70;;;2.80;75.50;;;;;;5032436;28;20185;-82
2022/01/08 06:33:11;;;;;;;0.70;0.70;;;2.70;75.40;;;;;;5032804;28;20173;-82
2022/01/08 06:35:36;;;;;;;1.00;1.00;;;2.80;77.80;;;;;;5032616;28;20430;-83
2022/01/08 06:38:02;;;;;;;1.33;1.20;;;2.80;75.50;;;;;;5032673;28;20172;-83
2022/01/08 06:40:28;;;;;;;1.57;0.90;;;2.90;80.10;;;;;;5032226;28;20179;-83
2022/01/08 06:42:53;;;;;;;1.07;0.97;;;2.80;76.30;;;;;;5032864;28;20176;-83
2022/01/08 06:45:19;;;;;;;2.03;1.00;;;2.80;75.50;;;;;;5032532;28;20523;-83
2022/01/08 06:47:45;;;;;;;1.23;0.80;;;2.80;78.80;;;;;;5032314;28;20275;-82
2022/01/08 06:50:12;;;;;;;1.17;0.90;;;2.80;75.60;;;;;;5032166;28;20610;-82
2022/01/08 06:52:38;;;;;;;1.03;0.83;;;2.80;75.50;;;;;;5032198;28;20813;-84
2022/01/08 06:55:05;;;;;;;0.90;0.90;;;2.70;75.40;;;;;;5032246;28;20459;-84
2022/01/08 06:57:30;;;;;;;1.10;1.00;;;2.80;77.00;;;;;;5032200;28;20422;-84
2022/01/08 07:00:03;;;;;;;1.47;1.00;;;2.80;74.30;;;;;;5032123;28;20408;-84
2022/01/08 07:02:29;;;;;;;1.10;1.00;;;2.80;72.50;;;;;;5032130;28;20180;-84
2022/01/08 07:04:54;;;;;;;0.90;0.90;;;2.70;75.80;;;;;;5032346;28;20346;-83
2022/01/08 07:07:20;;;;;;;1.10;1.10;;;2.80;72.90;;;;;;5034195;28;20412;-82
2022/01/08 07:09:46;;;;;;;2.13;1.13;;;2.70;74.60;;;;;;5032840;28;20659;-81
2022/01/08 07:12:11;;;;;;;1.13;1.03;;;2.80;73.70;;;;;;5032486;28;20204;-82
2022/01/08 07:14:37;;;;;;;1.40;1.30;;;2.70;72.10;;;;;;5032917;28;20422;-82
2022/01/08 07:17:03;;;;;;;1.70;1.60;;;2.70;72.80;;;;;;5032820;28;20562;-81
2022/01/08 07:19:29;;;;;;;1.60;1.50;;;2.70;73.80;;;;;;5030783;28;20188;-82
2022/01/08 07:21:54;;;;;;;1.67;1.53;;;2.70;72.60;;;;;;5031317;28;20427;-82
2022/01/08 07:24:20;;;;;;;2.03;1.70;;;2.70;73.00;;;;;;5030672;28;20183;-82
2022/01/08 07:26:46;;;;;;;1.50;1.40;;;2.70;73.40;;;;;;5032221;28;20779;-83
2022/01/08 07:29:11;;;;;;;1.63;1.53;;;2.70;74.10;;;;;;5031826;28;20234;-83
2022/01/08 07:31:37;;;;;;;2.60;1.63;;;2.60;75.40;;;;;;5031859;28;20350;-83
2022/01/08 07:34:03;;;;;;;2.20;2.10;;;2.70;75.40;;;;;;5031966;28;20223;-83
2022/01/08 07:36:29;;;;;;;1.90;1.80;;;2.70;75.30;;;;;;5032105;28;20912;-81
2022/01/08 07:38:54;;;;;;;2.17;2.07;;;2.70;76.70;;;;;;5032121;28;20663;-83
2022/01/08 07:41:20;;;;;;;3.40;2.10;;;2.70;76.70;;;;;;5031895;28;20548;-83
2022/01/08 07:43:46;;;;;;;2.00;1.90;;;2.80;75.80;;;;;;5032044;28;20246;-83
2022/01/08 07:46:12;;;;;;;1.97;1.87;;;2.70;74.00;;;;;;5031660;28;20181;-82
2022/01/08 07:48:37;;;;;;;2.10;1.90;;;2.70;74.10;;;;;;5032833;28;20654;-83
2022/01/08 07:51:03;;;;;;;3.00;2.10;;;2.70;73.90;;;;;;5031209;28;20459;-83
2022/01/08 07:53:29;;;;;;;1.60;1.40;;;2.80;75.20;;;;;;5031394;28;20528;-82
2022/01/08 07:55:55;;;;;;;2.40;1.60;;;2.70;75.60;;;;;;5031209;28;20188;-82
2022/01/08 07:58:21;;;;;;;2.00;1.90;;;2.70;75.50;;;;;;5031833;28;20411;-82
2022/01/08 08:00:50;;;;;;;1.93;1.70;;;2.70;76.70;;;;;;5031231;28;20256;-83
2022/01/08 08:03:17;;;;;;;2.63;2.35;;;2.70;73.50;;;;;;5031616;28;20455;-82
2022/01/08 08:05:45;;;;;;;2.30;2.10;;;2.80;76.20;;;;;;5031509;28;20168;-82
2022/01/08 08:08:18;;;;;;;3.25;2.65;;;2.80;76.60;;;;;;5031317;28;20851;-83
2022/01/08 08:10:48;;;;;;;6.20;5.57;;;2.90;74.30;;;;;;5031046;28;20602;-83
2022/01/08 08:13:14;;;;;;;3.50;3.20;;;2.90;73.10;;;;;;5031328;28;20455;-83
2022/01/08 08:15:40;;;;;;;4.93;2.42;;;2.80;72.10;;;;;;5031288;28;20213;-83
2022/01/08 08:18:06;;;;;;;4.00;2.67;;;2.70;73.70;;;;;;5031079;28;20212;-85
2022/01/08 08:20:31;;;;;;;3.17;2.87;;;2.80;73.30;;;;;;5031302;28;20532;-82
2022/01/08 08:22:57;;;;;;;5.87;4.07;;;3.00;73.80;;;;;;5030868;28;20210;-81
2022/01/08 08:25:23;;;;;;;4.63;4.23;;;3.10;73.30;;;;;;5031303;28;20263;-81
2022/01/08 08:27:50;;;;;;;4.27;3.60;;;3.10;69.40;;;;;;5031167;28;20173;-83
2022/01/08 08:30:16;;;;;;;5.15;3.15;;;3.20;71.00;;;;;;5030682;28;20183;-82
2022/01/08 08:32:42;;;;;;;3.27;2.97;;;3.20;69.90;;;;;;5031105;28;20616;-81
2022/01/08 08:35:08;;;;;;;3.60;3.20;;;3.30;67.50;;;;;;5031126;28;20412;-83
2022/01/08 08:37:35;;;;;;;5.13;2.60;;;3.30;67.80;;;;;;5032393;28;20449;-84
2022/01/08 08:40:03;;;;;;;2.53;2.33;;;3.20;65.30;;;;;;5032292;28;20413;-85
2022/01/08 08:42:29;;;;;;;3.97;2.60;;;3.20;65.60;;;;;;5032359;28;20886;-84
2022/01/08 08:44:54;;;;;;;2.60;2.00;;;3.50;69.40;;;;;;5031135;28;20504;-85
2022/01/08 08:47:20;;;;;;;3.37;2.30;;;3.60;65.60;;;;;;5031205;28;20661;-85
2022/01/08 08:49:45;;;;;;;3.40;2.90;;;3.70;67.60;;;;;;5030838;28;20242;-85
2022/01/08 08:52:11;;;;;;;2.60;2.40;;;3.60;62.10;;;;;;5030959;28;20224;-84
2022/01/08 08:54:40;;;;;;;2.90;2.63;;;3.50;65.20;;;;;;5031085;28;20210;-83
2022/01/08 08:57:09;;;;;;;2.50;2.30;;;3.50;64.60;;;;;;5030996;28;20836;-83
2022/01/08 08:59:36;;;;;;;4.87;2.87;;;3.50;65.70;;;;;;5030827;28;20403;-83
2022/01/08 09:02:01;;;;;;;1.93;1.77;;;3.50;67.40;;;;;;5031005;28;20416;-83
2022/01/08 09:04:27;;;;;;;2.00;1.70;;;3.50;66.30;;;;;;5030904;28;20418;-83
2022/01/08 09:06:52;;;;;;;2.30;2.10;;;3.50;66.90;;;;;;5032746;28;20181;-83
2022/01/08 09:09:18;;;;;;;2.90;2.70;;;3.60;66.40;;;;;;5034699;28;20707;-83
2022/01/08 09:11:44;;;;;;;2.07;1.87;;;3.60;65.30;;;;;;5034734;28;20287;-83
2022/01/08 09:14:09;;;;;;;2.13;1.93;;;3.60;66.30;;;;;;5034601;28;20231;-83
2022/01/08 09:16:36;;;;;;;1.87;1.70;;;3.50;66.30;;;;;;5034721;28;20226;-82
2022/01/08 09:19:03;;;;;;;2.30;2.10;;;3.50;64.30;;;;;;5030754;28;20230;-83
2022/01/08 09:21:29;;;;;;;2.57;1.80;;;3.50;64.60;;;;;;5020333;28;20519;-83
2022/01/08 09:23:55;;;;;;;2.27;2.10;;;3.50;64.70;;;;;;5014906;28;20458;-82
2022/01/08 09:26:21;;;;;;;1.63;1.53;;;3.50;64.90;;;;;;5014627;28;20229;-82
2022/01/08 09:28:47;;;;;;;4.20;2.07;;;3.50;66.30;;;;;;5014701;28;20704;-82
2022/01/08 09:31:12;;;;;;;1.80;1.70;;;3.50;63.60;;;;;;5014295;28;20197;-82
2022/01/08 09:33:41;;;;;;;4.20;1.83;;;3.50;63.60;;;;;;5026787;28;20759;-81
2022/01/08 09:36:06;;;;;;;2.50;2.10;;;3.50;64.30;;;;;;5034049;28;20547;-82
2022/01/08 09:38:32;;;;;;;2.10;1.90;;;3.50;66.90;;;;;;5034062;28;20408;-81
2022/01/08 09:40:58;;;;;;;2.57;2.37;;;3.50;66.80;;;;;;5033781;28;20262;-81
2022/01/08 09:43:24;;;;;;;3.07;2.43;;;3.60;67.60;;;;;;5035455;28;20173;-81
2022/01/08 09:45:50;;;;;;;4.37;2.30;;;3.60;66.40;;;;;;5034007;28;20418;-82
2022/01/08 09:48:16;;;;;;;4.13;2.77;;;3.60;66.00;;;;;;5033824;28;20455;-82
2022/01/08 09:50:45;;;;;;;3.07;2.17;;;3.60;65.20;;;;;;5034078;28;20168;-81
2022/01/08 09:53:11;;;;;;;3.37;2.43;;;3.70;65.80;;;;;;5034078;28;20526;-81
2022/01/08 09:55:37;;;;;;;2.73;2.50;;;3.60;63.80;;;;;;5033714;28;20420;-81
2022/01/08 09:58:03;;;;;;;3.67;2.93;;;3.60;64.70;;;;;;5033967;28;20414;-81
2022/01/08 10:00:34;;;;;;;4.90;2.50;;;3.60;64.20;;;;;;5033617;28;20412;-82
2022/01/08 10:03:20;;;;;;;2.53;2.33;;;3.50;63.10;;;;;;5033879;28;20411;-81
2022/01/08 10:05:49;;;;;;;2.47;2.00;;;3.60;63.90;;;;;;5033771;28;20433;-80
2022/01/08 10:08:15;;;;;;;2.70;2.50;;;3.60;63.20;;;;;;5033508;28;20420;-82
2022/01/08 10:10:52;;;;;;;3.23;2.30;;;3.60;61.60;;;;;;5033328;28;20776;-81
2022/01/08 10:13:34;;;;;;;3.50;2.10;;;3.70;63.50;;;;;;5033569;28;20418;-81
2022/01/08 10:18:47;;;;;;;3.07;2.63;;;3.80;63.00;;;;;;5033157;28;20463;-82
2022/01/08 10:21:22;;;;;;;2.90;2.70;;;3.70;61.40;;;;;;5031669;28;20761;-82
2022/01/08 10:23:55;;;;;;;2.30;2.10;;;3.70;62.20;;;;;;5033061;28;20413;-82
2022/01/08 10:26:32;;;;;;;2.80;2.60;;;3.70;61.80;;;;;;5032639;28;20782;-82
2022/01/08 10:29:06;;;;;;;2.70;2.23;;;3.70;59.50;;;;;;5034535;28;20398;-82
2022/01/08 10:31:36;;;;;;;2.20;2.03;;;3.70;57.70;;;;;;5032671;28;20473;-81
2022/01/08 10:34:08;;;;;;;4.43;2.73;;;3.80;60.60;;;;;;5032091;28;20446;-81
2022/01/08 10:36:37;;;;;;;4.90;3.40;;;3.80;58.80;;;;;;5031278;28;20413;-80
2022/01/08 10:39:09;;;;;;;3.90;2.40;;;3.90;60.80;;;;;;5031941;28;20183;-81
2022/01/08 10:41:43;;;;;;;6.00;3.00;;;3.90;61.20;;;;;;5031446;28;20938;-81
2022/01/08 10:44:12;;;;;;;2.73;2.00;;;3.90;57.50;;;;;;5031656;28;20441;-82
2022/01/08 10:46:38;;;;;;;3.50;1.97;;;3.80;58.20;;;;;;5031446;28;20411;-81
2022/01/08 10:49:04;;;;;;;2.37;2.17;;;3.80;58.00;;;;;;5031015;28;20427;-81
2022/01/08 10:51:37;;;;;;;4.17;2.50;;;3.80;57.20;;;;;;5031023;28;20516;-81
2022/01/08 10:54:08;;;;;;;5.40;2.57;;;3.80;56.80;;;;;;5031300;28;20395;-81
2022/01/08 10:56:36;;;;;;;3.57;1.90;;;3.70;59.40;;;;;;5030856;28;20412;-81
2022/01/08 10:59:07;;;;;;;2.17;1.60;;;3.80;56.80;;;;;;5031050;28;20404;-81
2022/01/08 11:01:52;;;;;;;2.33;2.03;;;3.70;55.60;;;;;;5030992;28;20749;-81
2022/01/08 11:04:47;;;;;;;3.37;1.70;;;3.70;57.60;;;;;;5031771;28;20408;-81
2022/01/08 11:07:30;;;;;;;4.20;2.37;;;3.70;58.80;;;;;;5032307;28;20788;-81
2022/01/08 11:10:04;;;;;;;2.10;1.90;;;3.80;60.20;;;;;;5032120;28;20411;-81
2022/01/08 11:12:36;;;;;;;3.77;2.73;;;3.80;58.20;;;;;;5032065;28;20466;-81
2022/01/08 11:17:42;;;;;;;5.33;2.40;;;3.80;57.40;;;;;;5011848;28;20834;-81
2022/01/08 11:20:15;;;;;;;3.23;1.90;;;3.70;55.90;;;;;;5011079;28;20419;-83
2022/01/08 11:22:47;;;;;;;3.70;2.00;;;3.80;56.80;;;;;;5012280;28;20425;-83
2022/01/08 11:25:14;;;;;;;2.60;2.13;;;3.70;56.40;;;;;;5011796;28;20466;-80
2022/01/08 11:27:59;;;;;;;3.07;2.10;;;3.80;56.80;;;;;;5010393;28;20423;-81
2022/01/08 11:30:26;;;;;;;2.00;1.90;;;3.70;55.10;;;;;;5010040;28;20929;-81
2022/01/08 11:32:56;;;;;;;4.07;1.80;;;3.80;55.30;;;;;;5011619;28;20460;-80
2022/01/08 11:35:23;;;;;;;1.93;1.70;;;3.80;56.00;;;;;;5010499;28;20499;-80
2022/01/08 11:37:51;;;;;;;3.53;2.87;;;3.90;56.40;;;;;;5010222;28;20426;-80
2022/01/08 11:40:21;;;;;;;2.40;2.10;;;4.00;55.50;;;;;;5011431;28;20634;-80
2022/01/08 11:42:47;;;;;;;2.20;1.63;;;4.00;54.40;;;;;;5010435;28;20841;-81
2022/01/08 11:45:21;;;;;;;2.70;1.93;;;4.00;55.00;;;;;;5010343;28;20412;-81
2022/01/08 11:47:51;;;;;;;2.13;1.93;;;4.10;56.40;;;;;;5010139;28;20482;-81
2022/01/08 11:50:22;;;;;;;3.50;2.40;;;4.10;55.00;;;;;;5011209;28;20912;-81
2022/01/08 11:53:15;;;;;;;3.33;1.60;;;4.20;54.80;;;;;;5010260;28;20518;-81
2022/01/08 11:55:47;;;;;;;3.07;1.47;;;4.20;53.10;;;;;;5001432;28;20444;-80
2022/01/08 11:58:34;;;;;;;1.87;1.77;;;4.20;53.90;;;;;;5010496;28;20423;-80
2022/01/08 12:01:04;;;;;;;1.90;1.57;;;4.20;53.80;;;;;;5011282;28;20436;-80
2022/01/08 12:03:35;;;;;;;3.40;1.90;;;4.20;54.50;;;;;;5009794;28;20818;-81
2022/01/08 12:11:47;;;;;;;3.00;1.90;;;4.20;54.50;;;;;;5011207;28;20510;-81
2022/01/08 12:14:15;;;;;;;3.40;1.73;;;4.10;54.70;;;;;;5009901;28;20508;-81
2022/01/08 12:16:43;;;;;;;6.00;2.43;;;4.10;53.10;;;;;;5009545;28;20909;-81
2022/01/08 12:19:27;;;;;;;2.00;1.90;;;4.10;53.10;;;;;;5008702;28;20470;-82
2022/01/08 12:21:52;;;;;;;1.73;1.60;;;4.00;53.70;;;;;;5010493;28;20980;-80
2022/01/08 12:24:27;;;;;;;3.77;2.37;;;4.10;54.00;;;;;;5009273;28;20511;-80
2022/01/08 12:26:58;;;;;;;1.80;1.70;;;4.10;54.40;;;;;;5008640;28;20227;-80
2022/01/08 12:29:34;;;;;;;3.00;1.63;;;4.20;54.40;;;;;;5009094;28;20462;-80
2022/01/08 12:32:38;;;;;;;1.93;1.47;;;4.20;55.10;;;;;;5008590;28;20459;-81
2022/01/08 12:35:18;;;;;;;4.90;1.87;;;4.20;55.10;;;;;;5008858;28;20481;-81
2022/01/08 12:37:46;;;;;;;2.50;1.73;;;4.20;54.70;;;;;;5009120;28;20467;-80
2022/01/08 12:40:31;;;;;;;2.80;2.40;;;4.10;54.90;;;;;;5011325;28;20412;-82
2022/01/08 12:42:58;;;;;;;2.20;2.00;;;4.10;56.00;;;;;;5014564;28;20420;-83
2022/01/08 12:45:36;;;;;;;2.27;2.17;;;4.10;57.00;;;;;;5014353;28;20423;-81
2022/01/08 12:48:08;;;;;;;2.37;2.17;;;4.00;55.10;;;;;;5025630;28;20418;-82
2022/01/08 12:50:44;;;;;;;2.73;2.17;;;4.00;55.20;;;;;;5019858;28;20423;-83
2022/01/08 12:53:16;;;;;;;2.40;1.97;;;4.00;53.20;;;;;;5035981;28;20527;-83
2022/01/08 12:55:43;;;;;;;5.37;2.70;;;4.00;54.50;;;;;;5034538;28;20518;-81
2022/01/08 12:58:29;;;;;;;3.60;2.33;;;4.00;55.80;;;;;;5033933;28;20453;-84
2022/01/08 13:01:03;;;;;;;4.60;2.03;;;4.00;53.90;;;;;;5033048;28;20425;-84
2022/01/08 13:03:48;;;;;;;2.37;1.90;;;4.10;56.40;;;;;;5033353;28;20788;-82
2022/01/08 13:06:13;;;;;;;3.17;2.50;;;4.00;53.40;;;;;;5031870;28;20415;-80
2022/01/08 13:08:44;;;;;;;4.53;2.17;;;4.10;56.10;;;;;;5034153;28;20490;-84
2022/01/08 13:11:13;;;;;;;4.80;2.30;;;4.10;54.10;;;;;;5033317;28;20169;-83
2022/01/08 13:13:40;;;;;;;1.90;1.63;;;4.20;55.60;;;;;;5032847;28;20939;-83
2022/01/08 13:16:21;;;;;;;1.90;1.60;;;4.20;52.80;;;;;;5032626;28;20481;-82
2022/01/08 13:19:08;;;;;;;4.00;2.60;;;4.20;51.00;;;;;;5032743;28;20422;-82
2022/01/08 13:21:36;;;;;;;2.63;2.23;;;4.30;53.50;;;;;;5032763;28;20403;-83
2022/01/08 13:24:11;;;;;;;5.47;3.40;;;4.40;54.20;;;;;;5032201;28;20485;-83
2022/01/08 13:26:40;;;;;;;5.83;2.70;;;4.30;52.60;;;;;;5032953;28;20418;-83
2022/01/08 13:29:25;;;;;;;2.40;2.20;;;4.30;51.40;;;;;;5032515;28;20846;-83
2022/01/08 13:32:03;;;;;;;2.03;1.77;;;4.30;52.80;;;;;;5031338;28;20543;-83
2022/01/08 13:34:39;;;;;;;2.60;2.40;;;4.30;51.50;;;;;;5032626;28;20415;-83